sensor_id;sensor_type;location;lat;lon;timestamp;pressure;altitude;pressure_sealevel;temperature;humidity
54439;BME280;40347;53.848;27.498;2023-11-22T00:01:17;1018.1;;;-1.2;50.9
54439;BME280;40347;53.848;27.498;2023-11-22T00:06:21;1018.2;;;-1.5;51.2
54439;BME280;40347;53.848;27.498;2023-11-22T00:11:07;1018.1;;;-1.7;51.9
54439;BME280;40347;53.848;27.498;2023-11-22T00:16:31;1018.1;;;-1.9;52.6
54439;BME280;40347;53.848;27.498;2023-11-22T00:21:17;1018.1;;;-1.8;52.7
54439;BME280;40347;53.848;27.498;2023-11-22T00:26:13;1018.1;;;-1.8;53
54439;BME280;40347;53.848;27.498;2023-11-22T00:31:15;1018.1;;;-1.7;53.1
54439;BME280;40347;53.848;27.498;2023-11-22T00:36:25;1018.1;;;-1.3;53.2
54439;BME280;40347;53.848;27.498;2023-11-22T00:41:29;1018;;;-1;52.9
54439;BME280;40347;53.848;27.498;2023-11-22T00:46:07;1018.1;;;-0.9;52.6
54439;BME280;40347;53.848;27.498;2023-11-22T00:51:07;1018.1;;;-1.3;53.5
54439;BME280;40347;53.848;27.498;2023-11-22T00:56:21;1018.1;;;-1.7;55.1
54439;BME280;40347;53.848;27.498;2023-11-22T01:01:29;1018.1;;;-2;56.2
54439;BME280;40347;53.848;27.498;2023-11-22T01:06:15;1018.1;;;-2.1;57.3
54439;BME280;40347;53.848;27.498;2023-11-22T01:11:07;1018.1;;;-1.9;57
54439;BME280;40347;53.848;27.498;2023-11-22T01:16:39;1018.1;;;-1.6;56.6
54439;BME280;40347;53.848;27.498;2023-11-22T01:21:07;1018.1;;;-1.5;56.8
54439;BME280;40347;53.848;27.498;2023-11-22T01:26:15;1018;;;-1.5;57.2
54439;BME280;40347;53.848;27.498;2023-11-22T01:31:07;1018;;;-1.6;57.2
54439;BME280;40347;53.848;27.498;2023-11-22T01:36:07;1018;;;-1.4;57.2
54439;BME280;40347;53.848;27.498;2023-11-22T01:41:07;1018;;;-1.2;56.7
54439;BME280;40347;53.848;27.498;2023-11-22T01:46:17;1017.9;;;-1.1;55.9
54439;BME280;40347;53.848;27.498;2023-11-22T01:51:07;1018;;;-1.2;55.8
54439;BME280;40347;53.848;27.498;2023-11-22T01:56:21;1017.9;;;-1.2;56.1
54439;BME280;40347;53.848;27.498;2023-11-22T02:01:07;1017.9;;;-1.2;56.3
54439;BME280;40347;53.848;27.498;2023-11-22T02:06:07;1017.9;;;-1.1;56.4
54439;BME280;40347;53.848;27.498;2023-11-22T02:11:08;1017.9;;;-1.3;56.6
54439;BME280;40347;53.848;27.498;2023-11-22T02:16:31;1017.9;;;-1.4;56.8
54439;BME280;40347;53.848;27.498;2023-11-22T02:21:07;1017.9;;;-1.5;57.4
54439;BME280;40347;53.848;27.498;2023-11-22T02:26:27;1017.9;;;-1.7;59.9
54439;BME280;40347;53.848;27.498;2023-11-22T02:31:35;1018;;;-2.1;60.8
54439;BME280;40347;53.848;27.498;2023-11-22T02:36:17;1018;;;-1.8;59.9
54439;BME280;40347;53.848;27.498;2023-11-22T02:41:27;1017.9;;;-1.6;59.4
54439;BME280;40347;53.848;27.498;2023-11-22T02:46:43;1018;;;-1.5;59
54439;BME280;40347;53.848;27.498;2023-11-22T02:51:27;1018;;;-1.4;59
54439;BME280;40347;53.848;27.498;2023-11-22T02:56:15;1018;;;-1.4;59.4
54439;BME280;40347;53.848;27.498;2023-11-22T03:01:07;1018;;;-1.6;59.9
54439;BME280;40347;53.848;27.498;2023-11-22T03:06:07;1018;;;-1.8;60.5
54439;BME280;40347;53.848;27.498;2023-11-22T03:11:07;1018;;;-1.8;60.6
54439;BME280;40347;53.848;27.498;2023-11-22T03:16:07;1018.1;;;-1.8;60.7
54439;BME280;40347;53.848;27.498;2023-11-22T03:21:27;1018.1;;;-2;61.4
54439;BME280;40347;53.848;27.498;2023-11-22T03:26:21;1018.1;;;-2.1;61.9
54439;BME280;40347;53.848;27.498;2023-11-22T03:31:27;1018.1;;;-2;61.9
54439;BME280;40347;53.848;27.498;2023-11-22T03:36:15;1018.2;;;-2.2;61.8
54439;BME280;40347;53.848;27.498;2023-11-22T03:41:07;1018.3;;;-2.6;63.4
54439;BME280;40347;53.848;27.498;2023-11-22T03:46:07;1018.3;;;-2.9;66.6
54439;BME280;40347;53.848;27.498;2023-11-22T03:51:15;1018.3;;;-2.6;65.5
54439;BME280;40347;53.848;27.498;2023-11-22T03:56:15;1018.4;;;-2.6;64.1
54439;BME280;40347;53.848;27.498;2023-11-22T04:01:27;1018.3;;;-2.5;63.7
54439;BME280;40347;53.848;27.498;2023-11-22T04:06:07;1018.4;;;-2.7;64.1
54439;BME280;40347;53.848;27.498;2023-11-22T04:11:07;1018.4;;;-2.8;64.8
54439;BME280;40347;53.848;27.498;2023-11-22T04:16:21;1018.4;;;-2.8;64.6
54439;BME280;40347;53.848;27.498;2023-11-22T04:21:07;1018.5;;;-2.6;64
54439;BME280;40347;53.848;27.498;2023-11-22T04:26:07;1018.5;;;-2.6;63.3
54439;BME280;40347;53.848;27.498;2023-11-22T04:31:17;1018.5;;;-2.6;63.3
54439;BME280;40347;53.848;27.498;2023-11-22T04:36:29;1018.6;;;-2.8;63.8
54439;BME280;40347;53.848;27.498;2023-11-22T04:41:15;1018.7;;;-2.9;65
54439;BME280;40347;53.848;27.498;2023-11-22T04:46:51;1018.7;;;-2.9;65.5
54439;BME280;40347;53.848;27.498;2023-11-22T04:51:15;1018.8;;;-2.8;64.7
54439;BME280;40347;53.848;27.498;2023-11-22T04:56:27;1018.8;;;-3.1;63.4
54439;BME280;40347;53.848;27.498;2023-11-22T05:01:19;1018.9;;;-2.9;62.9
54439;BME280;40347;53.848;27.498;2023-11-22T05:06:31;1019;;;-2.6;62.1
54439;BME280;40347;53.848;27.498;2023-11-22T05:11:07;1019;;;-2.4;60.9
54439;BME280;40347;53.848;27.498;2023-11-22T05:16:47;1019.1;;;-2.2;60.1
54439;BME280;40347;53.848;27.498;2023-11-22T05:21:15;1019.1;;;-2.1;59.6
54439;BME280;40347;53.848;27.498;2023-11-22T05:26:07;1019.1;;;-2.4;58.8
54439;BME280;40347;53.848;27.498;2023-11-22T05:31:27;1019.2;;;-2.7;59.1
54439;BME280;40347;53.848;27.498;2023-11-22T05:36:43;1019.2;;;-2.9;59.2
54439;BME280;40347;53.848;27.498;2023-11-22T05:41:27;1019.3;;;-3.2;59.6
54439;BME280;40347;53.848;27.498;2023-11-22T05:46:21;1019.4;;;-3.3;60.6
54439;BME280;40347;53.848;27.498;2023-11-22T05:51:27;1019.4;;;-3.5;62.2
54439;BME280;40347;53.848;27.498;2023-11-22T05:56:07;1019.5;;;-3.3;62.9
54439;BME280;40347;53.848;27.498;2023-11-22T06:01:27;1019.5;;;-3.2;63.2
54439;BME280;40347;53.848;27.498;2023-11-22T06:06:29;1019.7;;;-3.4;63.9
54439;BME280;40347;53.848;27.498;2023-11-22T06:11:07;1019.8;;;-3.9;67.6
54439;BME280;40347;53.848;27.498;2023-11-22T06:16:13;1019.9;;;-4.3;67.7
54439;BME280;40347;53.848;27.498;2023-11-22T06:21:07;1019.9;;;-4.8;67.7
54439;BME280;40347;53.848;27.498;2023-11-22T06:26:35;1020;;;-4.9;68.2
54439;BME280;40347;53.848;27.498;2023-11-22T06:31:27;1019.9;;;-4.7;67.7
54439;BME280;40347;53.848;27.498;2023-11-22T06:36:27;1020;;;-4.9;66.9
54439;BME280;40347;53.848;27.498;2023-11-22T06:41:07;1020.1;;;-5;66.7
54439;BME280;40347;53.848;27.498;2023-11-22T06:46:07;1020.1;;;-4.8;67.5
54439;BME280;40347;53.848;27.498;2023-11-22T06:51:13;1020.1;;;-5;66.1
54439;BME280;40347;53.848;27.498;2023-11-22T06:57:01;1020.1;;;-4.7;64.6
54439;BME280;40347;53.848;27.498;2023-11-22T07:01:53;1020.2;;;-4.4;62.8
54439;BME280;40347;53.848;27.498;2023-11-22T07:06:15;1020.3;;;-4.3;61.6
54439;BME280;40347;53.848;27.498;2023-11-22T07:11:21;1020.4;;;-4.5;60.1
54439;BME280;40347;53.848;27.498;2023-11-22T07:16:07;1020.4;;;-4.5;60.1
54439;BME280;40347;53.848;27.498;2023-11-22T07:21:37;1020.4;;;-4.3;59.8
54439;BME280;40347;53.848;27.498;2023-11-22T07:26:07;1020.5;;;-4.3;58.6
54439;BME280;40347;53.848;27.498;2023-11-22T07:31:29;1020.5;;;-4.4;57.4
54439;BME280;40347;53.848;27.498;2023-11-22T07:36:47;1020.5;;;-4.2;57.2
54439;BME280;40347;53.848;27.498;2023-11-22T07:41:21;1020.6;;;-4.7;55.6
54439;BME280;40347;53.848;27.498;2023-11-22T07:46:07;1020.7;;;-4.9;55.9
54439;BME280;40347;53.848;27.498;2023-11-22T07:51:17;1020.7;;;-4.7;55.8
54439;BME280;40347;53.848;27.498;2023-11-22T07:56:07;1020.7;;;-4.6;55
54439;BME280;40347;53.848;27.498;2023-11-22T08:01:07;1020.8;;;-4.3;55
54439;BME280;40347;53.848;27.498;2023-11-22T08:06:33;1020.8;;;-4.2;54.3
54439;BME280;40347;53.848;27.498;2023-11-22T08:11:07;1020.8;;;-4.1;53.5
54439;BME280;40347;53.848;27.498;2023-11-22T08:16:07;1020.8;;;-3.9;53
54439;BME280;40347;53.848;27.498;2023-11-22T08:21:21;1020.9;;;-3.9;52.5
54439;BME280;40347;53.848;27.498;2023-11-22T08:26:31;1020.9;;;-4.2;52.4
54439;BME280;40347;53.848;27.498;2023-11-22T08:31:07;1020.9;;;-4.1;52.1
54439;BME280;40347;53.848;27.498;2023-11-22T08:36:23;1020.8;;;-3.9;52.1
54439;BME280;40347;53.848;27.498;2023-11-22T08:41:27;1020.9;;;-3.9;52
54439;BME280;40347;53.848;27.498;2023-11-22T08:46:27;1020.8;;;-4;51.4
54439;BME280;40347;53.848;27.498;2023-11-22T08:51:15;1020.9;;;-4.2;51.2
54439;BME280;40347;53.848;27.498;2023-11-22T08:56:07;1021;;;-4.1;51.7
54439;BME280;40347;53.848;27.498;2023-11-22T09:01:07;1021;;;-3.6;52.1
54439;BME280;40347;53.848;27.498;2023-11-22T09:06:27;1021;;;-3.1;52
54439;BME280;40347;53.848;27.498;2023-11-22T09:11:21;1021;;;-2.7;51.6
54439;BME280;40347;53.848;27.498;2023-11-22T09:16:07;1020.8;;;-2.4;50.4
54439;BME280;40347;53.848;27.498;2023-11-22T09:21:23;1020.7;;;-2.4;50.2
54439;BME280;40347;53.848;27.498;2023-11-22T09:26:17;1020.7;;;-2.6;48.9
54439;BME280;40347;53.848;27.498;2023-11-22T09:31:27;1020.7;;;-2.9;49.4
54439;BME280;40347;53.848;27.498;2023-11-22T09:36:27;1020.8;;;-3;50
54439;BME280;40347;53.848;27.498;2023-11-22T09:41:13;1020.9;;;-3;50.3
54439;BME280;40347;53.848;27.498;2023-11-22T09:46:27;1021;;;-3.1;49.5
54439;BME280;40347;53.848;27.498;2023-11-22T09:51:37;1020.8;;;-2.8;50.5
54439;BME280;40347;53.848;27.498;2023-11-22T09:56:07;1020.8;;;-2.4;50.1
54439;BME280;40347;53.848;27.498;2023-11-22T10:01:35;1020.7;;;-2;49.6
54439;BME280;40347;53.848;27.498;2023-11-22T10:06:07;1020.7;;;-1.7;49.4
54439;BME280;40347;53.848;27.498;2023-11-22T10:11:07;1020.7;;;-2.2;47.7
54439;BME280;40347;53.848;27.498;2023-11-22T10:16:08;1020.7;;;-2.7;49
54439;BME280;40347;53.848;27.498;2023-11-22T10:21:18;1020.7;;;-2.7;50.1
54439;BME280;40347;53.848;27.498;2023-11-22T10:26:51;1020.8;;;-2.4;50.1
54439;BME280;40347;53.848;27.498;2023-11-22T10:31:07;1020.8;;;-2.4;48.8
54439;BME280;40347;53.848;27.498;2023-11-22T10:36:27;1020.8;;;-2.1;49.8
54439;BME280;40347;53.848;27.498;2023-11-22T10:41:27;1020.8;;;-1.7;49.4
54439;BME280;40347;53.848;27.498;2023-11-22T10:46:43;1020.8;;;-1.9;48.4
54439;BME280;40347;53.848;27.498;2023-11-22T10:51:19;1020.9;;;-2;48.6
54439;BME280;40347;53.848;27.498;2023-11-22T10:56:33;1020.9;;;-2.2;49.2
54439;BME280;40347;53.848;27.498;2023-11-22T11:01:07;1021;;;-2.4;49.9
54439;BME280;40347;53.848;27.498;2023-11-22T11:06:51;1020.9;;;-2.2;50
54439;BME280;40347;53.848;27.498;2023-11-22T11:11:07;1020.9;;;-2.1;50.1
54439;BME280;40347;53.848;27.498;2023-11-22T11:16:07;1020.8;;;-1.9;50.5
54439;BME280;40347;53.848;27.498;2023-11-22T11:21:25;1020.8;;;-1.6;50.5
54439;BME280;40347;53.848;27.498;2023-11-22T11:26:39;1020.8;;;-1.6;50.9
54439;BME280;40347;53.848;27.498;2023-11-22T11:31:07;1020.8;;;-2.1;51.6
54439;BME280;40347;53.848;27.498;2023-11-22T11:36:39;1020.8;;;-2.3;51.8
54439;BME280;40347;53.848;27.498;2023-11-22T11:41:47;1020.8;;;-2.2;52.1
54439;BME280;40347;53.848;27.498;2023-11-22T11:46:07;1020.9;;;-2.2;52.5
54439;BME280;40347;53.848;27.498;2023-11-22T11:51:07;1021;;;-2.3;53.1
54439;BME280;40347;53.848;27.498;2023-11-22T11:56:07;1020.9;;;-2.3;53.7
54439;BME280;40347;53.848;27.498;2023-11-22T12:01:07;1020.9;;;-2.1;53.4
54439;BME280;40347;53.848;27.498;2023-11-22T12:06:07;1020.9;;;-2;52.3
54439;BME280;40347;53.848;27.498;2023-11-22T12:11:07;1020.9;;;-2;51.5
54439;BME280;40347;53.848;27.498;2023-11-22T12:16:27;1020.9;;;-2.3;51.7
54439;BME280;40347;53.848;27.498;2023-11-22T12:21:27;1020.8;;;-2.3;52.1
54439;BME280;40347;53.848;27.498;2023-11-22T12:26:53;1020.8;;;-2.3;52.7
54439;BME280;40347;53.848;27.498;2023-11-22T12:31:07;1020.7;;;-2.4;53
54439;BME280;40347;53.848;27.498;2023-11-22T12:36:08;1020.6;;;-2.5;53.8
54439;BME280;40347;53.848;27.498;2023-11-22T12:41:15;1020.7;;;-2.5;54.2
54439;BME280;40347;53.848;27.498;2023-11-22T12:46:13;1020.8;;;-2.9;55
54439;BME280;40347;53.848;27.498;2023-11-22T12:51:54;1020.9;;;-3.5;56.4
54439;BME280;40347;53.848;27.498;2023-11-22T12:56:13;1020.9;;;-3.4;57
54439;BME280;40347;53.848;27.498;2023-11-22T13:01:13;1020.8;;;-3.1;56.7
54439;BME280;40347;53.848;27.498;2023-11-22T13:06:07;1020.7;;;-2.7;56.6
54439;BME280;40347;53.848;27.498;2023-11-22T13:11:35;1020.6;;;-2.6;56.2
54439;BME280;40347;53.848;27.498;2023-11-22T13:16:07;1020.6;;;-2.5;56
54439;BME280;40347;53.848;27.498;2023-11-22T13:21:07;1020.5;;;-2.1;55.7
54439;BME280;40347;53.848;27.498;2023-11-22T13:26:21;1020.4;;;-1.9;54.7
54439;BME280;40347;53.848;27.498;2023-11-22T13:31:07;1020.4;;;-2.1;53.9
54439;BME280;40347;53.848;27.498;2023-11-22T13:36:07;1020.4;;;-2.4;54.2
54439;BME280;40347;53.848;27.498;2023-11-22T13:41:17;1020.4;;;-2.8;53.7
54439;BME280;40347;53.848;27.498;2023-11-22T13:46:13;1020.5;;;-3.2;53.9
54439;BME280;40347;53.848;27.498;2023-11-22T13:51:07;1020.4;;;-3;54.1
54439;BME280;40347;53.848;27.498;2023-11-22T13:56:27;1020.5;;;-3;53.4
54439;BME280;40347;53.848;27.498;2023-11-22T14:01:07;1020.6;;;-3.3;53
54439;BME280;40347;53.848;27.498;2023-11-22T14:06:19;1020.7;;;-3.3;52.9
54439;BME280;40347;53.848;27.498;2023-11-22T14:11:07;1020.7;;;-3;53.1
54439;BME280;40347;53.848;27.498;2023-11-22T14:16:21;1020.6;;;-3.1;55.2
54439;BME280;40347;53.848;27.498;2023-11-22T14:21:07;1020.7;;;-3.1;59.3
54439;BME280;40347;53.848;27.498;2023-11-22T14:26:07;1020.8;;;-3.2;57.9
54439;BME280;40347;53.848;27.498;2023-11-22T14:31:07;1020.7;;;-3.3;57.5
54439;BME280;40347;53.848;27.498;2023-11-22T14:36:15;1020.7;;;-3.2;56.1
54439;BME280;40347;53.848;27.498;2023-11-22T14:41:15;1020.8;;;-3;55
54439;BME280;40347;53.848;27.498;2023-11-22T14:46:07;1020.7;;;-3.1;53.9
54439;BME280;40347;53.848;27.498;2023-11-22T14:51:35;1020.7;;;-3.1;53.3
54439;BME280;40347;53.848;27.498;2023-11-22T14:56:21;1020.7;;;-3.1;53
54439;BME280;40347;53.848;27.498;2023-11-22T15:01:23;1020.8;;;-3;53.4
54439;BME280;40347;53.848;27.498;2023-11-22T15:06:07;1020.9;;;-3.3;53.4
54439;BME280;40347;53.848;27.498;2023-11-22T15:11:15;1020.9;;;-3.6;54.7
54439;BME280;40347;53.848;27.498;2023-11-22T15:16:37;1020.8;;;-3.7;55.7
54439;BME280;40347;53.848;27.498;2023-11-22T15:21:07;1020.6;;;-3.4;55.7
54439;BME280;40347;53.848;27.498;2023-11-22T15:26:33;1020.7;;;-3.2;55.2
54439;BME280;40347;53.848;27.498;2023-11-22T15:31:15;1020.9;;;-3.5;54.7
54439;BME280;40347;53.848;27.498;2023-11-22T15:36:07;1021;;;-3.5;54.7
54439;BME280;40347;53.848;27.498;2023-11-22T15:41:21;1021;;;-3.2;54.6
54439;BME280;40347;53.848;27.498;2023-11-22T15:51:07;1020.9;;;-2.7;53.7
54439;BME280;40347;53.848;27.498;2023-11-22T15:56:07;1020.9;;;-2.6;53.8
54439;BME280;40347;53.848;27.498;2023-11-22T16:01:29;1020.8;;;-2.5;53.2
54439;BME280;40347;53.848;27.498;2023-11-22T16:06:15;1020.8;;;-2.4;53.3
54439;BME280;40347;53.848;27.498;2023-11-22T16:11:13;1021.1;;;-2.3;53.6
54439;BME280;40347;53.848;27.498;2023-11-22T16:16:33;1021;;;-2.3;53.5
54439;BME280;40347;53.848;27.498;2023-11-22T16:21:07;1021;;;-2.3;53.5
54439;BME280;40347;53.848;27.498;2023-11-22T16:31:33;1020.9;;;-2.1;53.6
54439;BME280;40347;53.848;27.498;2023-11-22T16:36:07;1020.8;;;-2.3;53.2
54439;BME280;40347;53.848;27.498;2023-11-22T16:41:40;1020.7;;;-2.4;53.5
54439;BME280;40347;53.848;27.498;2023-11-22T16:46:07;1020.7;;;-2.2;54
54439;BME280;40347;53.848;27.498;2023-11-22T16:51:17;1020.7;;;-2.1;53.3
54439;BME280;40347;53.848;27.498;2023-11-22T16:56:07;1020.6;;;-2.1;53.4
54439;BME280;40347;53.848;27.498;2023-11-22T17:01:27;1020.5;;;-2;53.4
54439;BME280;40347;53.848;27.498;2023-11-22T17:06:15;1020.4;;;-2;52.9
54439;BME280;40347;53.848;27.498;2023-11-22T17:11:33;1020.3;;;-2.2;52.9
54439;BME280;40347;53.848;27.498;2023-11-22T17:16:21;1020.3;;;-2.2;52.9
54439;BME280;40347;53.848;27.498;2023-11-22T17:21:07;1020.4;;;-2.2;52.5
54439;BME280;40347;53.848;27.498;2023-11-22T17:26:07;1020.4;;;-2.3;52.2
54439;BME280;40347;53.848;27.498;2023-11-22T17:31:21;1020.2;;;-2.4;52.4
54439;BME280;40347;53.848;27.498;2023-11-22T17:36:08;1020.3;;;-2.6;51.7
54439;BME280;40347;53.848;27.498;2023-11-22T17:41:21;1020.3;;;-2.9;51.8
54439;BME280;40347;53.848;27.498;2023-11-22T17:46:17;1020.4;;;-3.1;52.3
54439;BME280;40347;53.848;27.498;2023-11-22T17:51:15;1020.5;;;-3;52.9
54439;BME280;40347;53.848;27.498;2023-11-22T17:56:33;1020.3;;;-2.8;52.5
54439;BME280;40347;53.848;27.498;2023-11-22T18:01:15;1020.4;;;-2.8;52.3
54439;BME280;40347;53.848;27.498;2023-11-22T18:06:07;1020.5;;;-2.9;52.2
54439;BME280;40347;53.848;27.498;2023-11-22T18:11:25;1020.5;;;-2.8;52.8
54439;BME280;40347;53.848;27.498;2023-11-22T18:16:17;1020.4;;;-2.5;52.7
54439;BME280;40347;53.848;27.498;2023-11-22T18:21:41;1020.4;;;-2.3;52.6
54439;BME280;40347;53.848;27.498;2023-11-22T18:26:09;1020.5;;;-2.2;52.2
54439;BME280;40347;53.848;27.498;2023-11-22T18:31:08;1020.5;;;-2.1;52.2
54439;BME280;40347;53.848;27.498;2023-11-22T18:36:07;1020.6;;;-2.1;52.1
54439;BME280;40347;53.848;27.498;2023-11-22T18:41:08;1020.4;;;-2;52.3
54439;BME280;40347;53.848;27.498;2023-11-22T18:46:15;1020.4;;;-1.9;52.3
54439;BME280;40347;53.848;27.498;2023-11-22T18:51:27;1020.4;;;-1.9;52.2
54439;BME280;40347;53.848;27.498;2023-11-22T18:56:31;1020.4;;;-2;52.5
54439;BME280;40347;53.848;27.498;2023-11-22T19:01:07;1020.4;;;-2;52.5
54439;BME280;40347;53.848;27.498;2023-11-22T19:06:23;1020.3;;;-2;52.4
54439;BME280;40347;53.848;27.498;2023-11-22T19:11:07;1020.2;;;-2;52.3
54439;BME280;40347;53.848;27.498;2023-11-22T19:16:07;1020.3;;;-2;52.1
54439;BME280;40347;53.848;27.498;2023-11-22T19:21:33;1020.3;;;-2.1;52.4
54439;BME280;40347;53.848;27.498;2023-11-22T19:26:19;1020.2;;;-2;52.5
54439;BME280;40347;53.848;27.498;2023-11-22T19:31:08;1020.1;;;-1.9;52.2
54439;BME280;40347;53.848;27.498;2023-11-22T19:36:43;1020;;;-2;52.4
54439;BME280;40347;53.848;27.498;2023-11-22T19:41:09;1019.9;;;-2;52.6
54439;BME280;40347;53.848;27.498;2023-11-22T19:46:21;1019.9;;;-2;52.7
54439;BME280;40347;53.848;27.498;2023-11-22T19:51:07;1019.9;;;-2;52.7
54439;BME280;40347;53.848;27.498;2023-11-22T19:56:28;1019.8;;;-1.9;52.8
54439;BME280;40347;53.848;27.498;2023-11-22T20:01:41;1019.9;;;-1.8;52.7
54439;BME280;40347;53.848;27.498;2023-11-22T20:06:10;1019.8;;;-1.8;52.6
54439;BME280;40347;53.848;27.498;2023-11-22T20:11:07;1019.7;;;-1.8;52.7
54439;BME280;40347;53.848;27.498;2023-11-22T20:16:25;1019.6;;;-1.9;52.8
54439;BME280;40347;53.848;27.498;2023-11-22T20:21:21;1019.6;;;-2;52.9
54439;BME280;40347;53.848;27.498;2023-11-22T20:26:25;1019.6;;;-2.1;52.8
54439;BME280;40347;53.848;27.498;2023-11-22T20:31:08;1019.5;;;-2.2;53
54439;BME280;40347;53.848;27.498;2023-11-22T20:36:41;1019.4;;;-2.2;53.4
54439;BME280;40347;53.848;27.498;2023-11-22T20:41:13;1019.4;;;-2.2;53.3
54439;BME280;40347;53.848;27.498;2023-11-22T20:46:43;1019.3;;;-2.2;53.2
54439;BME280;40347;53.848;27.498;2023-11-22T20:51:07;1019.2;;;-2.1;53
54439;BME280;40347;53.848;27.498;2023-11-22T20:56:17;1019.1;;;-2.2;53.1
54439;BME280;40347;53.848;27.498;2023-11-22T21:01:31;1018.9;;;-2.2;53.2
54439;BME280;40347;53.848;27.498;2023-11-22T21:06:35;1018.9;;;-2.1;53.4
54439;BME280;40347;53.848;27.498;2023-11-22T21:11:18;1018.7;;;-2;53.2
54439;BME280;40347;53.848;27.498;2023-11-22T21:16:33;1018.6;;;-1.9;53.1
54439;BME280;40347;53.848;27.498;2023-11-22T21:21:27;1018.5;;;-1.9;53.3
54439;BME280;40347;53.848;27.498;2023-11-22T21:26:07;1018.4;;;-1.9;53.4
54439;BME280;40347;53.848;27.498;2023-11-22T21:31:33;1018.2;;;-1.8;53.5
54439;BME280;40347;53.848;27.498;2023-11-22T21:36:43;1018;;;-1.7;53.5
54439;BME280;40347;53.848;27.498;2023-11-22T21:41:43;1017.9;;;-1.7;53.6
54439;BME280;40347;53.848;27.498;2023-11-22T21:46:23;1017.8;;;-1.7;53.7
54439;BME280;40347;53.848;27.498;2023-11-22T21:51:07;1017.8;;;-1.6;53.7
54439;BME280;40347;53.848;27.498;2023-11-22T21:56:47;1017.7;;;-1.6;53.7
54439;BME280;40347;53.848;27.498;2023-11-22T22:01:09;1017.6;;;-1.6;53.6
54439;BME280;40347;53.848;27.498;2023-11-22T22:06:43;1017.6;;;-1.7;53.4
54439;BME280;40347;53.848;27.498;2023-11-22T22:11:25;1017.5;;;-1.7;53.3
54439;BME280;40347;53.848;27.498;2023-11-22T22:16:25;1017.4;;;-1.8;53.3
54439;BME280;40347;53.848;27.498;2023-11-22T22:21:07;1017.4;;;-1.8;53.2
54439;BME280;40347;53.848;27.498;2023-11-22T22:26:21;1017.4;;;-1.9;53.2
54439;BME280;40347;53.848;27.498;2023-11-22T22:31:07;1017.3;;;-2.1;53.2
54439;BME280;40347;53.848;27.498;2023-11-22T22:36:21;1017.2;;;-2.2;53.2
54439;BME280;40347;53.848;27.498;2023-11-22T22:41:33;1017;;;-2.4;53.3
54439;BME280;40347;53.848;27.498;2023-11-22T22:46:07;1016.9;;;-2.5;53.5
54439;BME280;40347;53.848;27.498;2023-11-22T22:51:25;1016.8;;;-2.6;53.7
54439;BME280;40347;53.848;27.498;2023-11-22T22:56:16;1016.7;;;-2.7;53.7
54439;BME280;40347;53.848;27.498;2023-11-22T23:01:13;1016.6;;;-2.7;53.7
54439;BME280;40347;53.848;27.498;2023-11-22T23:06:41;1016.6;;;-2.7;53.7
54439;BME280;40347;53.848;27.498;2023-11-22T23:11:29;1016.5;;;-2.7;53.8
54439;BME280;40347;53.848;27.498;2023-11-22T23:16:29;1016.3;;;-2.8;53.8
54439;BME280;40347;53.848;27.498;2023-11-22T23:21:07;1016.2;;;-2.7;53.9
54439;BME280;40347;53.848;27.498;2023-11-22T23:26:17;1016;;;-2.7;53.8
54439;BME280;40347;53.848;27.498;2023-11-22T23:31:27;1015.8;;;-2.7;53.7
54439;BME280;40347;53.848;27.498;2023-11-22T23:36:15;1015.9;;;-2.6;53.7
54439;BME280;40347;53.848;27.498;2023-11-22T23:41:07;1015.8;;;-2.6;53.6
54439;BME280;40347;53.848;27.498;2023-11-22T23:46:33;1015.6;;;-2.7;53.7
54439;BME280;40347;53.848;27.498;2023-11-22T23:51:25;1015.3;;;-2.7;53.8
54439;BME280;40347;53.848;27.498;2023-11-22T23:56:07;1015.3;;;-2.7;53.7
